Time;durP1;ratioP1;P1;durP2;ratioP2;P2;SDS_P1;SDS_P2;PMS_P1;PMS_P2;Temp;Humidity;BMP_temperature;BMP_pressure;BME280_temperature;BME280_humidity;BME280_pressure;Samples;Min_cycle;Max_cycle;Signal;HPM_P1;HPM_P2
2023/11/03 00:01:08;;;;;;;7.72;3.30;;;24.10;99.90;;;;;;5105726;28;20101;-40
2023/11/03 00:03:33;;;;;;;9.70;3.38;;;24.10;99.90;;;;;;5086617;28;20025;-40
2023/11/03 00:05:59;;;;;;;7.78;3.78;;;24.10;99.90;;;;;;5103188;28;20512;-39
2023/11/03 00:08:25;;;;;;;8.15;3.17;;;24.10;99.90;;;;;;5103407;28;20027;-40
2023/11/03 00:10:51;;;;;;;9.82;3.75;;;24.10;99.90;;;;;;5102528;28;20035;-39
2023/11/03 00:13:17;;;;;;;8.75;3.28;;;24.10;99.90;;;;;;5099903;28;20117;-41
2023/11/03 00:15:43;;;;;;;7.20;3.25;;;24.10;99.90;;;;;;5099976;28;20115;-40
2023/11/03 00:18:09;;;;;;;8.70;3.78;;;24.10;99.90;;;;;;5103584;28;20039;-40
2023/11/03 00:20:34;;;;;;;7.78;3.15;;;24.10;99.90;;;;;;5101749;28;20115;-41
2023/11/03 00:23:00;;;;;;;6.00;2.97;;;24.10;99.90;;;;;;5101814;28;20533;-40
2023/11/03 00:25:26;;;;;;;8.07;3.13;;;24.10;99.90;;;;;;5093219;28;20067;-40
2023/11/03 00:27:52;;;;;;;6.75;2.80;;;24.10;99.90;;;;;;5097677;27;20038;-40
2023/11/03 00:30:18;;;;;;;8.15;3.53;;;24.10;99.90;;;;;;5096124;28;20036;-40
2023/11/03 00:32:44;;;;;;;9.23;2.60;;;24.10;99.90;;;;;;5096586;28;20028;-41
2023/11/03 00:35:11;;;;;;;9.00;3.05;;;24.10;99.90;;;;;;5092016;28;20017;-41
2023/11/03 00:37:39;;;;;;;8.15;2.90;;;24.10;99.90;;;;;;5098150;28;20089;-40
2023/11/03 00:40:05;;;;;;;;;;;24.00;99.90;;;;;;5094125;28;20016;-40
2023/11/03 00:42:31;;;;;;;5.20;2.50;;;24.00;99.90;;;;;;5101531;28;19960;-39
2023/11/03 00:44:57;;;;;;;6.65;2.78;;;24.00;99.90;;;;;;5095983;28;20028;-40
2023/11/03 00:47:24;;;;;;;4.45;2.85;;;24.00;99.90;;;;;;5097617;28;20532;-40
2023/11/03 00:49:50;;;;;;;7.97;3.03;;;24.00;99.90;;;;;;5096711;28;20463;-40
2023/11/03 00:52:16;;;;;;;5.95;2.80;;;24.00;99.90;;;;;;5097410;28;20034;-40
2023/11/03 00:54:41;;;;;;;6.07;2.50;;;24.00;99.90;;;;;;5099066;28;20020;-40
2023/11/03 00:57:08;;;;;;;3.70;2.40;;;24.00;99.90;;;;;;5097110;27;20496;-41
2023/11/03 00:59:34;;;;;;;6.85;3.08;;;24.00;99.90;;;;;;5098189;28;20097;-40
2023/11/03 01:02:00;;;;;;;7.28;2.92;;;24.00;99.90;;;;;;5100823;28;20062;-40
2023/11/03 01:04:26;;;;;;;6.38;2.80;;;24.00;99.90;;;;;;5100652;28;20058;-40
2023/11/03 01:06:51;;;;;;;5.68;2.80;;;24.00;99.90;;;;;;5100533;28;20031;-41
2023/11/03 01:09:19;;;;;;;5.88;2.58;;;24.00;99.90;;;;;;5088508;28;20461;-39
2023/11/03 01:11:47;;;;;;;7.72;2.80;;;24.00;99.90;;;;;;5091660;28;20039;-40
2023/11/03 01:14:13;;;;;;;8.23;2.50;;;24.00;99.90;;;;;;5095716;28;20024;-40
2023/11/03 01:16:41;;;;;;;4.95;3.20;;;24.00;99.90;;;;;;5098284;28;20507;-40
2023/11/03 01:19:09;;;;;;;8.13;2.70;;;24.00;99.90;;;;;;5101789;28;20020;-40
2023/11/03 01:21:39;;;;;;;8.77;2.80;;;23.90;99.90;;;;;;5080207;28;20097;-40
2023/11/03 01:24:06;;;;;;;10.27;2.63;;;23.90;99.90;;;;;;5096901;28;20035;-40
2023/11/03 01:26:33;;;;;;;;;;;23.90;99.90;;;;;;5097795;28;20024;-40
2023/11/03 01:28:59;;;;;;;4.47;2.20;;;23.90;99.90;;;;;;5096214;28;19912;-40
2023/11/03 01:31:25;;;;;;;5.10;2.15;;;23.90;99.90;;;;;;5099738;28;20431;-41
2023/11/03 01:33:52;;;;;;;6.07;2.80;;;23.90;99.90;;;;;;5099698;28;20015;-40
2023/11/03 01:36:17;;;;;;;4.25;2.13;;;23.90;99.90;;;;;;5094689;28;20107;-40
2023/11/03 01:38:44;;;;;;;5.18;2.00;;;23.80;99.90;;;;;;5095171;28;20100;-40
2023/11/03 01:41:11;;;;;;;9.07;2.58;;;23.90;99.90;;;;;;5100384;28;20028;-40
2023/11/03 01:43:37;;;;;;;4.10;2.25;;;23.80;99.90;;;;;;5099921;28;20103;-40
2023/11/03 01:46:03;;;;;;;6.45;2.80;;;23.80;99.90;;;;;;5100846;28;20360;-39
2023/11/03 01:48:31;;;;;;;7.70;2.80;;;23.80;99.90;;;;;;5096972;28;20056;-40
2023/11/03 01:51:00;;;;;;;7.10;1.95;;;23.80;99.90;;;;;;5092168;28;20119;-41
2023/11/03 01:53:28;;;;;;;6.57;2.35;;;23.80;99.90;;;;;;5095093;28;20066;-40
2023/11/03 01:55:54;;;;;;;7.25;2.00;;;23.70;99.90;;;;;;5095315;28;20105;-40
2023/11/03 01:58:21;;;;;;;4.68;2.20;;;23.70;99.90;;;;;;5098441;28;20490;-40
2023/11/03 02:00:47;;;;;;;4.45;2.10;;;23.70;99.90;;;;;;5097627;28;20023;-40
2023/11/03 02:03:13;;;;;;;4.25;2.00;;;23.70;99.90;;;;;;5084661;28;20377;-40
2023/11/03 02:05:39;;;;;;;5.70;2.25;;;23.70;99.90;;;;;;5072097;28;20110;-40
2023/11/03 02:08:05;;;;;;;5.75;2.03;;;23.70;99.90;;;;;;5089882;28;20478;-40
2023/11/03 02:10:31;;;;;;;5.20;1.80;;;23.70;99.90;;;;;;5092203;28;20044;-40
2023/11/03 02:12:57;;;;;;;3.17;1.63;;;23.70;99.90;;;;;;5091741;28;20020;-39
2023/11/03 02:15:24;;;;;;;5.78;1.98;;;23.60;99.90;;;;;;5090114;28;20032;-39
2023/11/03 02:17:49;;;;;;;3.65;2.10;;;23.60;99.90;;;;;;5078485;28;20103;-40
2023/11/03 02:20:16;;;;;;;6.20;1.73;;;23.60;99.90;;;;;;5084146;28;20107;-39
2023/11/03 02:22:42;;;;;;;3.97;2.22;;;23.60;99.90;;;;;;5076816;28;20017;-39
2023/11/03 02:25:08;;;;;;;4.93;1.92;;;23.60;99.90;;;;;;5080489;28;20043;-40
2023/11/03 02:27:34;;;;;;;4.28;2.13;;;23.60;99.90;;;;;;5075284;28;20032;-40
2023/11/03 02:30:00;;;;;;;5.00;1.80;;;23.60;99.90;;;;;;5076730;28;20081;-40
2023/11/03 02:32:26;;;;;;;4.18;1.48;;;23.60;99.90;;;;;;5073117;28;20032;-39
2023/11/03 02:34:52;;;;;;;4.55;1.85;;;23.50;99.90;;;;;;5085423;28;20024;-39
2023/11/03 02:37:18;;;;;;;3.75;1.70;;;23.50;99.90;;;;;;5089929;28;20122;-40
2023/11/03 02:39:47;;;;;;;4.07;1.73;;;23.50;99.90;;;;;;5091719;28;20020;-39
2023/11/03 02:42:14;;;;;;;4.38;1.63;;;23.50;99.90;;;;;;5091426;28;20463;-40
2023/11/03 02:44:40;;;;;;;4.10;1.98;;;23.50;99.90;;;;;;5082912;28;20472;-40
2023/11/03 02:47:06;;;;;;;4.53;1.70;;;23.50;99.90;;;;;;5085584;28;20032;-39
2023/11/03 02:49:33;;;;;;;4.45;1.75;;;23.40;99.90;;;;;;5092065;28;20024;-43
2023/11/03 02:52:00;;;;;;;4.82;1.85;;;23.40;99.90;;;;;;5091869;28;20044;-40
2023/11/03 02:54:25;;;;;;;2.83;1.65;;;23.40;99.90;;;;;;5091482;28;20032;-40
2023/11/03 02:56:52;;;;;;;2.35;1.48;;;23.40;99.90;;;;;;5092115;28;20028;-39
2023/11/03 02:59:18;;;;;;;8.07;2.10;;;23.40;99.90;;;;;;5090535;28;20157;-39
2023/11/03 03:01:43;;;;;;;4.50;1.58;;;23.40;99.90;;;;;;5068554;22;20162;-49
2023/11/03 03:04:09;;;;;;;4.47;1.75;;;23.40;99.90;;;;;;5031581;28;20033;-49
2023/11/03 03:06:35;;;;;;;6.18;1.58;;;23.40;99.90;;;;;;5031082;28;20393;-49
2023/11/03 03:09:01;;;;;;;3.22;1.58;;;23.40;99.90;;;;;;5032139;28;20027;-49
2023/11/03 03:11:27;;;;;;;3.08;1.60;;;23.30;99.90;;;;;;5035174;28;20029;-49
2023/11/03 03:13:53;;;;;;;3.88;1.55;;;23.30;99.90;;;;;;5031979;28;20037;-49
2023/11/03 03:16:21;;;;;;;3.95;1.63;;;23.30;99.90;;;;;;5035084;28;20104;-47
2023/11/03 03:18:47;;;;;;;4.28;1.75;;;23.30;99.90;;;;;;5035218;28;20495;-47
2023/11/03 03:21:17;;;;;;;4.65;2.20;;;23.30;99.90;;;;;;5035282;28;20108;-47
2023/11/03 03:23:43;;;;;;;2.08;1.30;;;23.30;99.90;;;;;;5028170;28;20467;-49
2023/11/03 03:26:09;;;;;;;4.13;1.63;;;23.30;99.90;;;;;;5034879;28;20040;-49
2023/11/03 03:28:35;;;;;;;4.53;1.45;;;23.30;99.90;;;;;;5035088;28;20532;-49
2023/11/03 03:31:01;;;;;;;4.07;1.80;;;23.30;99.90;;;;;;5034730;28;20120;-48
2023/11/03 03:33:27;;;;;;;3.30;2.22;;;23.30;99.90;;;;;;5034791;28;20017;-49
2023/11/03 03:35:53;;;;;;;3.63;1.30;;;23.30;99.90;;;;;;5034911;28;20045;-49
2023/11/03 03:38:19;;;;;;;3.30;1.38;;;23.30;99.90;;;;;;5034769;28;20021;-48
2023/11/03 03:40:45;;;;;;;4.70;1.40;;;23.20;99.90;;;;;;5033771;28;20027;-49
2023/11/03 03:43:11;;;;;;;2.45;1.10;;;23.20;99.90;;;;;;5034836;28;20108;-49
2023/11/03 03:45:36;;;;;;;3.28;1.52;;;23.20;99.90;;;;;;5034700;28;20444;-48
2023/11/03 03:48:03;;;;;;;6.95;1.33;;;23.20;99.90;;;;;;5034787;28;20526;-49
2023/11/03 03:50:28;;;;;;;4.70;1.40;;;23.20;99.90;;;;;;5031021;28;20030;-49
2023/11/03 03:52:54;;;;;;;2.90;1.65;;;23.20;99.90;;;;;;5033870;28;20109;-49
2023/11/03 03:55:20;;;;;;;2.65;1.27;;;23.20;99.90;;;;;;5023835;28;20034;-48
2023/11/03 03:57:46;;;;;;;6.13;1.58;;;23.20;99.90;;;;;;5031559;28;20512;-48
2023/11/03 04:00:12;;;;;;;6.18;1.20;;;23.20;99.90;;;;;;5034918;28;20056;-48
2023/11/03 04:02:38;;;;;;;3.30;1.35;;;23.10;99.90;;;;;;5034257;28;20049;-49
2023/11/03 04:05:04;;;;;;;3.22;1.60;;;23.10;99.90;;;;;;5034830;28;20036;-49
2023/11/03 04:07:30;;;;;;;4.22;1.65;;;23.10;99.90;;;;;;5034434;28;20029;-47
2023/11/03 04:09:56;;;;;;;4.25;1.58;;;23.10;99.90;;;;;;5034195;28;20100;-48
2023/11/03 04:12:22;;;;;;;4.20;1.30;;;23.10;99.90;;;;;;5034257;28;20026;-49
2023/11/03 04:14:48;;;;;;;1.67;1.02;;;23.10;99.90;;;;;;5034061;28;20428;-49
2023/11/03 04:17:14;;;;;;;3.78;1.50;;;23.10;99.90;;;;;;5034116;28;20032;-49
2023/11/03 04:19:39;;;;;;;4.53;1.58;;;23.10;99.90;;;;;;5032473;28;20112;-49
2023/11/03 04:22:05;;;;;;;2.40;1.40;;;23.10;99.90;;;;;;5033450;28;20022;-49
2023/11/03 04:24:31;;;;;;;4.85;1.23;;;23.10;99.90;;;;;;5031373;28;20061;-48
2023/11/03 04:26:57;;;;;;;3.22;1.33;;;23.10;99.90;;;;;;5032130;28;20656;-48
2023/11/03 04:29:23;;;;;;;4.15;1.20;;;23.10;99.90;;;;;;5031860;28;20018;-49
2023/11/03 04:31:49;;;;;;;3.08;1.00;;;23.10;99.90;;;;;;5032703;28;20028;-48
2023/11/03 04:34:15;;;;;;;4.75;1.38;;;23.10;99.90;;;;;;5033852;28;20378;-50
2023/11/03 04:36:41;;;;;;;2.67;1.17;;;23.10;99.90;;;;;;5033707;28;20033;-49
2023/11/03 04:39:07;;;;;;;2.20;1.00;;;23.10;99.90;;;;;;5033945;28;20377;-48
2023/11/03 04:41:32;;;;;;;3.20;1.35;;;23.00;99.90;;;;;;5032275;28;20030;-49
2023/11/03 04:43:58;;;;;;;3.35;1.40;;;23.00;99.90;;;;;;5033445;28;20018;-49
2023/11/03 04:46:24;;;;;;;4.15;0.95;;;23.00;99.90;;;;;;5033644;28;20053;-48
2023/11/03 04:48:50;;;;;;;4.20;1.17;;;23.00;99.90;;;;;;5033605;28;20028;-49
2023/11/03 04:51:16;;;;;;;3.03;1.17;;;23.00;99.90;;;;;;5026101;28;20030;-49
2023/11/03 04:53:43;;;;;;;5.72;1.15;;;23.00;99.90;;;;;;5028422;28;20028;-49
2023/11/03 04:56:09;;;;;;;5.07;1.20;;;23.00;99.90;;;;;;5031755;28;20021;-48
2023/11/03 04:58:35;;;;;;;4.75;2.08;;;23.00;99.90;;;;;;5030902;28;20025;-48
2023/11/03 05:01:00;;;;;;;4.53;1.60;;;23.00;99.90;;;;;;5032885;28;20100;-49
2023/11/03 05:03:26;;;;;;;3.13;1.10;;;23.00;99.90;;;;;;5033221;28;20064;-48
2023/11/03 05:05:52;;;;;;;2.33;1.40;;;23.00;99.90;;;;;;5031923;28;20099;-49
2023/11/03 05:08:19;;;;;;;2.58;1.45;;;23.00;99.90;;;;;;5033209;28;20029;-48
2023/11/03 05:10:45;;;;;;;3.97;2.10;;;22.90;99.90;;;;;;5030567;28;20030;-48
2023/11/03 05:13:10;;;;;;;2.28;0.80;;;22.90;99.90;;;;;;5030575;28;20448;-48
2023/11/03 05:15:36;;;;;;;3.30;1.10;;;22.90;99.90;;;;;;5032444;28;20075;-49
2023/11/03 05:18:02;;;;;;;4.70;1.27;;;22.90;99.90;;;;;;5032749;28;20036;-48
2023/11/03 05:20:28;;;;;;;3.00;1.08;;;22.90;99.90;;;;;;5032853;28;20026;-50
2023/11/03 05:22:54;;;;;;;3.58;1.13;;;22.90;99.90;;;;;;5032596;28;20025;-49
2023/11/03 05:25:20;;;;;;;3.25;0.90;;;22.90;99.90;;;;;;5031647;28;20033;-48
2023/11/03 05:27:46;;;;;;;5.25;1.63;;;22.90;99.90;;;;;;5032647;28;20026;-49
2023/11/03 05:30:12;;;;;;;5.63;1.17;;;22.90;99.90;;;;;;5032832;28;20024;-48
2023/11/03 05:32:39;;;;;;;5.38;1.50;;;22.90;99.90;;;;;;5031804;28;20564;-48
2023/11/03 05:35:05;;;;;;;1.73;0.90;;;22.80;99.90;;;;;;5032471;28;20492;-48
2023/11/03 05:37:31;;;;;;;3.25;1.05;;;22.80;99.90;;;;;;5032563;28;20025;-48
2023/11/03 05:39:57;;;;;;;5.20;1.25;;;22.80;99.90;;;;;;5026795;28;20040;-49
2023/11/03 05:42:23;;;;;;;3.38;1.30;;;22.80;99.90;;;;;;5031763;28;20052;-49
2023/11/03 05:44:49;;;;;;;2.60;1.17;;;22.80;99.90;;;;;;5032234;28;20026;-49
2023/11/03 05:47:15;;;;;;;9.15;2.47;;;22.80;99.90;;;;;;5032533;28;20024;-48
2023/11/03 05:49:41;;;;;;;5.78;1.30;;;22.80;99.90;;;;;;5032661;28;20047;-48
2023/11/03 05:52:07;;;;;;;3.40;1.55;;;22.80;99.90;;;;;;5032298;28;20037;-48
2023/11/03 05:54:33;;;;;;;1.55;0.90;;;22.80;99.90;;;;;;5019884;28;20496;-48
2023/11/03 05:56:59;;;;;;;5.22;1.92;;;22.80;99.90;;;;;;5023495;28;20026;-48
2023/11/03 05:59:24;;;;;;;4.50;1.42;;;22.80;99.90;;;;;;5031818;28;20029;-48
2023/11/03 06:01:51;;;;;;;3.30;1.10;;;22.80;99.90;;;;;;5032125;28;20139;-48
2023/11/03 06:04:17;;;;;;;2.92;1.05;;;22.80;99.90;;;;;;5032134;28;20033;-48
2023/11/03 06:06:42;;;;;;;5.30;2.15;;;22.70;99.90;;;;;;5032308;28;20021;-49
2023/11/03 06:09:11;;;;;;;2.50;1.05;;;22.70;99.90;;;;;;5032116;28;20418;-49
2023/11/03 06:11:37;;;;;;;3.78;1.20;;;22.70;99.90;;;;;;5031921;28;20040;-48
2023/11/03 06:14:04;;;;;;;5.18;1.73;;;22.70;99.90;;;;;;5032133;28;20475;-49
2023/11/03 06:16:30;;;;;;;4.68;1.33;;;22.70;99.90;;;;;;5030626;28;20477;-48
2023/11/03 06:18:56;;;;;;;5.53;1.92;;;22.70;99.90;;;;;;5029662;28;20029;-48
2023/11/03 06:21:22;;;;;;;3.25;1.38;;;22.70;99.90;;;;;;5031915;28;20037;-48
2023/11/03 06:23:48;;;;;;;4.25;1.10;;;22.70;99.90;;;;;;5031918;28;20097;-49
2023/11/03 06:26:14;;;;;;;3.78;1.10;;;22.70;99.90;;;;;;5032374;28;20163;-49
2023/11/03 06:28:40;;;;;;;2.58;1.55;;;22.70;99.90;;;;;;5030552;28;20014;-48
2023/11/03 06:31:07;;;;;;;7.07;2.25;;;22.70;99.90;;;;;;5031782;28;20045;-48
2023/11/03 06:33:33;;;;;;;5.47;1.05;;;22.70;99.90;;;;;;5031720;28;20021;-48
2023/11/03 06:35:59;;;;;;;5.03;1.45;;;22.80;99.90;;;;;;5031894;28;20444;-49
2023/11/03 06:38:25;;;;;;;5.80;1.42;;;22.70;99.90;;;;;;5031727;28;20022;-49
2023/11/03 06:40:52;;;;;;;5.47;2.03;;;22.70;99.90;;;;;;5031770;28;20097;-49
2023/11/03 06:43:18;;;;;;;5.22;1.65;;;22.70;99.90;;;;;;5032875;28;20037;-48
2023/11/03 06:45:44;;;;;;;3.70;1.60;;;22.70;99.90;;;;;;5035482;28;20124;-49
2023/11/03 06:48:10;;;;;;;4.07;2.25;;;22.70;99.90;;;;;;5023915;28;20072;-48
2023/11/03 06:50:35;;;;;;;5.97;1.75;;;22.70;99.90;;;;;;5034258;28;20492;-48
2023/11/03 06:53:02;;;;;;;3.03;1.38;;;22.80;99.90;;;;;;5035552;28;20496;-48
2023/11/03 06:55:28;;;;;;;4.53;1.88;;;22.70;99.90;;;;;;5035650;28;20485;-48
2023/11/03 06:57:54;;;;;;;7.35;1.90;;;22.70;99.90;;;;;;5028202;28;20036;-49
2023/11/03 07:00:20;;;;;;;4.25;2.17;;;22.70;99.90;;;;;;5034864;28;20025;-49
2023/11/03 07:02:46;;;;;;;4.05;1.80;;;22.70;99.90;;;;;;5035287;28;20099;-48
2023/11/03 07:05:13;;;;;;;7.55;2.13;;;22.70;99.90;;;;;;5033997;28;20025;-49
2023/11/03 07:07:39;;;;;;;5.78;2.03;;;22.70;99.90;;;;;;5035251;28;20034;-49
2023/11/03 07:10:06;;;;;;;6.80;1.98;;;22.70;99.90;;;;;;5035294;28;20022;-48
2023/11/03 07:12:32;;;;;;;3.92;2.42;;;22.70;99.90;;;;;;5035149;28;20094;-49
2023/11/03 07:14:59;;;;;;;6.13;1.80;;;22.70;99.90;;;;;;5034945;28;20478;-49
2023/11/03 07:17:25;;;;;;;5.38;2.03;;;22.70;99.90;;;;;;5035101;28;20025;-48
2023/11/03 07:19:51;;;;;;;6.93;2.17;;;22.70;99.90;;;;;;5034920;28;20175;-47
2023/11/03 07:22:17;;;;;;;5.13;2.08;;;22.70;99.90;;;;;;5035213;28;20477;-49
2023/11/03 07:24:43;;;;;;;5.60;2.10;;;22.70;99.90;;;;;;5034513;28;20075;-49
2023/11/03 07:27:09;;;;;;;3.85;1.92;;;22.70;99.90;;;;;;5034843;28;20022;-50
2023/11/03 07:29:35;;;;;;;3.83;2.30;;;22.70;99.90;;;;;;5034922;28;20037;-48
2023/11/03 07:32:01;;;;;;;6.18;2.40;;;22.70;99.90;;;;;;5034776;28;20034;-48
2023/11/03 07:34:27;;;;;;;4.28;2.00;;;22.70;99.90;;;;;;5034916;28;20032;-49
2023/11/03 07:36:52;;;;;;;7.93;2.50;;;22.70;99.90;;;;;;5034505;28;20100;-48
2023/11/03 07:39:18;;;;;;;6.43;1.95;;;22.80;99.90;;;;;;5034900;28;20410;-49
2023/11/03 07:41:44;;;;;;;5.07;2.35;;;22.80;99.90;;;;;;5034341;28;20021;-49
2023/11/03 07:44:13;;;;;;;8.70;2.05;;;22.80;99.90;;;;;;5034665;28;20033;-49
2023/11/03 07:46:39;;;;;;;4.50;2.20;;;22.80;99.90;;;;;;5034727;28;20037;-48
2023/11/03 07:49:05;;;;;;;5.13;1.80;;;22.80;99.90;;;;;;5034383;28;20025;-49
2023/11/03 07:51:30;;;;;;;6.88;2.85;;;22.80;99.90;;;;;;5033191;28;20029;-49
2023/11/03 07:53:57;;;;;;;4.75;2.28;;;22.80;99.90;;;;;;5033758;28;20029;-49
2023/11/03 07:56:23;;;;;;;6.47;2.40;;;22.80;99.90;;;;;;5033475;28;20026;-48
2023/11/03 07:58:49;;;;;;;4.43;2.30;;;22.80;99.90;;;;;;5034811;28;20419;-49
2023/11/03 08:01:16;;;;;;;5.43;2.13;;;22.80;99.90;;;;;;5034232;28;20042;-49
2023/11/03 08:03:43;;;;;;;5.55;2.33;;;22.80;99.90;;;;;;5034342;28;20033;-48
2023/11/03 08:06:09;;;;;;;5.47;1.83;;;22.80;99.90;;;;;;5034240;28;20109;-48
2023/11/03 08:08:36;;;;;;;4.25;2.17;;;22.90;99.90;;;;;;5034274;28;20049;-49
2023/11/03 08:11:03;;;;;;;5.55;1.83;;;22.80;99.90;;;;;;5029558;28;20044;-49
2023/11/03 08:13:29;;;;;;;4.63;2.33;;;22.90;99.90;;;;;;5032304;28;20044;-49
2023/11/03 08:15:55;;;;;;;6.72;3.05;;;22.90;99.90;;;;;;5033046;28;20497;-49
2023/11/03 08:18:21;;;;;;;5.22;2.45;;;22.90;99.90;;;;;;5033979;28;20068;-49
2023/11/03 08:20:47;;;;;;;6.72;2.40;;;22.90;99.90;;;;;;5034275;28;20029;-50
2023/11/03 08:23:14;;;;;;;6.28;2.67;;;22.90;99.90;;;;;;5033750;28;20171;-49
2023/11/03 08:25:40;;;;;;;4.00;2.58;;;22.90;99.90;;;;;;5034002;28;20026;-49
2023/11/03 08:28:06;;;;;;;5.35;2.35;;;22.90;99.90;;;;;;5033706;28;20083;-48
2023/11/03 08:30:33;;;;;;;5.90;2.60;;;22.90;99.90;;;;;;5033618;28;20018;-49
2023/11/03 08:32:59;;;;;;;5.82;2.22;;;22.90;99.90;;;;;;5033666;28;20026;-49
2023/11/03 08:35:26;;;;;;;6.28;2.58;;;22.90;99.90;;;;;;5033682;28;20100;-49
2023/11/03 08:37:53;;;;;;;6.95;2.45;;;22.90;99.90;;;;;;5034003;28;20018;-49
2023/11/03 08:40:22;;;;;;;6.93;2.42;;;22.90;99.90;;;;;;5020088;28;20413;-48
2023/11/03 08:42:49;;;;;;;6.22;2.42;;;23.00;99.90;;;;;;5033472;28;20025;-49
2023/11/03 08:45:17;;;;;;;4.03;2.22;;;23.00;99.90;;;;;;5033434;28;20100;-48
2023/11/03 08:47:43;;;;;;;4.82;2.22;;;23.00;99.90;;;;;;5033206;28;20025;-49
2023/11/03 08:50:10;;;;;;;7.20;2.95;;;23.00;99.90;;;;;;5033655;28;20017;-49
2023/11/03 08:52:36;;;;;;;3.45;2.22;;;23.10;99.90;;;;;;5033267;28;20037;-49
2023/11/03 08:55:06;;;;;;;5.90;2.95;;;23.10;99.90;;;;;;5033344;28;20485;-49
2023/11/03 08:57:36;;;;;;;4.68;2.33;;;23.20;99.90;;;;;;5033129;28;20381;-49
2023/11/03 09:00:15;;;;;;;6.55;2.33;;;23.30;99.90;;;;;;5033214;28;20079;-49
2023/11/03 09:02:48;;;;;;;5.32;2.22;;;23.30;99.90;;;;;;5032875;28;20374;-49
2023/11/03 09:05:14;;;;;;;5.65;2.08;;;23.40;99.90;;;;;;5033202;28;20061;-49
2023/11/03 09:07:41;;;;;;;7.55;2.60;;;23.40;99.90;;;;;;5021126;28;20105;-48
2023/11/03 09:10:10;;;;;;;7.10;2.95;;;23.40;99.90;;;;;;5033197;28;20030;-48
2023/11/03 09:12:41;;;;;;;4.50;2.00;;;23.50;99.90;;;;;;5033000;28;20040;-49
2023/11/03 09:15:07;;;;;;;9.07;2.70;;;23.50;99.90;;;;;;5019424;28;20059;-49
2023/11/03 09:17:35;;;;;;;10.57;2.77;;;23.60;99.90;;;;;;5033080;28;20029;-50
2023/11/03 09:20:04;;;;;;;11.35;3.75;;;23.60;99.90;;;;;;5032812;28;20056;-49
2023/11/03 09:22:30;;;;;;;5.82;2.20;;;23.70;99.90;;;;;;5024088;28;20029;-49
2023/11/03 09:25:00;;;;;;;6.93;2.40;;;23.70;99.90;;;;;;5032754;28;20032;-49
2023/11/03 09:27:27;;;;;;;3.83;2.50;;;23.80;99.90;;;;;;5025575;28;20477;-49
2023/11/03 09:29:53;;;;;;;5.55;2.83;;;23.80;99.90;;;;;;5032797;28;20385;-49
2023/11/03 09:32:19;;;;;;;6.50;2.70;;;23.90;99.90;;;;;;5032583;28;20112;-49
2023/11/03 09:34:49;;;;;;;7.20;2.80;;;23.90;99.90;;;;;;5032705;28;20097;-49
2023/11/03 09:37:15;;;;;;;7.93;3.08;;;24.00;99.90;;;;;;5019257;28;20104;-49
2023/11/03 09:39:43;;;;;;;7.68;2.90;;;24.00;99.90;;;;;;5032440;28;20021;-49
2023/11/03 09:42:11;;;;;;;9.50;3.17;;;24.00;99.90;;;;;;5032545;28;20032;-49
2023/11/03 09:44:37;;;;;;;5.97;2.83;;;24.10;99.90;;;;;;5032457;28;20092;-49
2023/11/03 09:47:08;;;;;;;7.80;2.65;;;24.10;99.90;;;;;;5032537;28;20056;-49
2023/11/03 09:49:35;;;;;;;5.72;2.67;;;24.10;99.90;;;;;;5032283;28;20013;-49
2023/11/03 09:52:03;;;;;;;6.15;2.58;;;24.20;99.90;;;;;;5031061;28;20076;-49
2023/11/03 09:54:34;;;;;;;7.95;2.50;;;24.20;99.90;;;;;;5031676;28;20025;-48
2023/11/03 09:57:02;;;;;;;5.97;2.50;;;24.30;99.90;;;;;;5032310;28;20108;-49
2023/11/03 09:59:30;;;;;;;10.77;2.83;;;24.30;99.90;;;;;;5030806;28;20056;-49
2023/11/03 10:01:57;;;;;;;5.50;2.60;;;24.30;99.90;;;;;;5032345;28;20041;-49
2023/11/03 10:04:22;;;;;;;6.03;2.60;;;24.40;99.90;;;;;;5032216;28;20028;-49
2023/11/03 10:06:49;;;;;;;8.65;3.45;;;24.40;99.90;;;;;;5032195;28;20097;-48
2023/11/03 10:09:16;;;;;;;6.20;2.50;;;24.50;99.90;;;;;;5032230;28;20021;-49
2023/11/03 10:11:45;;;;;;;7.85;3.08;;;24.50;99.90;;;;;;5032090;28;20291;-49
2023/11/03 10:14:11;;;;;;;5.03;2.20;;;24.50;99.90;;;;;;5031153;28;20037;-49
2023/11/03 10:16:38;;;;;;;6.18;2.72;;;24.60;99.90;;;;;;5031738;28;20033;-49
2023/11/03 10:19:05;;;;;;;7.78;2.83;;;24.70;99.90;;;;;;5020777;28;20030;-49
2023/11/03 10:21:31;;;;;;;7.78;3.13;;;24.70;99.90;;;;;;5045338;28;20427;-49
2023/11/03 10:23:58;;;;;;;7.22;3.38;;;24.70;99.90;;;;;;5027834;28;20026;-49
2023/11/03 10:26:24;;;;;;;6.90;3.55;;;24.80;99.90;;;;;;5030067;28;20048;-50
2023/11/03 10:28:51;;;;;;;7.05;3.20;;;24.80;99.90;;;;;;5030485;28;20025;-49
2023/11/03 10:31:20;;;;;;;8.23;3.00;;;24.90;99.90;;;;;;5031447;28;20025;-49
2023/11/03 10:33:48;;;;;;;6.32;2.40;;;24.90;99.90;;;;;;5031654;28;20113;-49
2023/11/03 10:36:14;;;;;;;3.42;2.20;;;24.90;99.90;;;;;;5031746;28;20024;-51
2023/11/03 10:38:40;;;;;;;10.55;3.92;;;24.90;99.90;;;;;;5031269;28;20029;-50
2023/11/03 10:41:09;;;;;;;7.18;2.40;;;25.00;99.90;;;;;;5030271;28;20071;-50
2023/11/03 10:43:45;;;;;;;10.73;2.42;;;24.90;99.90;;;;;;5030672;28;20388;-50
2023/11/03 10:46:20;;;;;;;8.38;2.17;;;24.90;99.90;;;;;;5018058;28;20048;-51
2023/11/03 10:48:51;;;;;;;5.90;1.85;;;24.90;99.90;;;;;;5031331;28;20030;-50
2023/11/03 10:51:25;;;;;;;5.18;2.00;;;24.80;99.90;;;;;;5028005;28;20041;-50
2023/11/03 10:54:00;;;;;;;10.05;2.50;;;24.80;99.90;;;;;;5031606;28;20104;-50
2023/11/03 10:56:27;;;;;;;9.70;2.22;;;24.80;99.90;;;;;;5028330;28;20028;-50
2023/11/03 10:58:54;;;;;;;7.15;2.47;;;24.80;99.90;;;;;;5023653;28;20022;-50
2023/11/03 11:01:32;;;;;;;12.77;2.63;;;24.80;99.90;;;;;;5030986;28;20182;-49
2023/11/03 11:04:21;;;;;;;11.95;2.33;;;24.80;99.90;;;;;;5031578;28;20033;-50
2023/11/03 11:06:56;;;;;;;7.53;2.30;;;24.90;99.90;;;;;;5031505;28;20479;-51
2023/11/03 11:09:40;;;;;;;7.97;2.78;;;24.90;99.90;;;;;;5018714;28;20481;-50
2023/11/03 11:12:07;;;;;;;7.43;2.22;;;24.90;99.90;;;;;;5031157;28;20370;-52
2023/11/03 11:14:43;;;;;;;15.43;3.50;;;24.90;99.90;;;;;;5030610;28;20021;-50
2023/11/03 11:17:25;;;;;;;9.25;2.50;;;24.90;99.90;;;;;;5031418;28;20373;-49
2023/11/03 11:19:54;;;;;;;6.25;2.30;;;25.00;99.90;;;;;;5028432;28;20800;-49
2023/11/03 11:22:23;;;;;;;8.70;2.25;;;25.00;99.90;;;;;;5031352;28;20113;-51
2023/11/03 11:24:51;;;;;;;4.38;1.70;;;25.00;99.90;;;;;;5030991;28;20022;-50
2023/11/03 11:27:22;;;;;;;7.00;1.80;;;25.00;99.90;;;;;;5031228;28;20025;-49
2023/11/03 11:29:50;;;;;;;17.02;2.80;;;25.10;99.90;;;;;;5029934;28;20028;-49
2023/11/03 11:32:18;;;;;;;6.78;2.35;;;25.10;99.90;;;;;;5034786;28;20086;-49
2023/11/03 11:34:46;;;;;;;4.00;2.03;;;25.20;99.90;;;;;;5034755;28;20024;-49
2023/11/03 11:37:28;;;;;;;9.93;3.25;;;25.20;99.90;;;;;;5032972;28;20025;-49
2023/11/03 11:39:56;;;;;;;9.23;2.30;;;25.30;99.90;;;;;;5034046;28;20036;-50
2023/11/03 11:42:28;;;;;;;7.32;2.45;;;25.30;99.90;;;;;;5034672;28;20385;-53
2023/11/03 11:44:54;;;;;;;7.07;2.15;;;25.30;99.90;;;;;;5033796;28;20434;-50
2023/11/03 11:47:24;;;;;;;8.73;2.03;;;25.40;99.90;;;;;;5033685;28;20104;-49
2023/11/03 11:49:53;;;;;;;7.78;2.15;;;25.40;99.90;;;;;;5034244;28;20034;-50
2023/11/03 11:52:22;;;;;;;9.65;2.25;;;25.40;99.90;;;;;;5034004;28;20383;-50
2023/11/03 11:54:48;;;;;;;6.28;2.10;;;25.40;99.90;;;;;;5034442;28;20020;-49
2023/11/03 11:57:14;;;;;;;11.20;2.95;;;25.50;99.90;;;;;;5032937;28;20417;-50
2023/11/03 11:59:43;;;;;;;7.85;1.73;;;25.50;99.90;;;;;;5034244;28;20021;-50
2023/11/03 12:02:09;;;;;;;8.20;2.42;;;25.50;99.90;;;;;;5031512;28;20528;-51
2023/11/03 12:04:36;;;;;;;6.70;2.08;;;25.50;99.90;;;;;;5033591;28;20028;-49
2023/11/03 12:07:05;;;;;;;9.50;3.25;;;25.60;99.90;;;;;;5034094;28;20040;-49
2023/11/03 12:09:40;;;;;;;10.05;2.67;;;25.60;99.90;;;;;;5034211;28;20052;-49
2023/11/03 12:12:07;;;;;;;8.68;2.08;;;25.60;99.90;;;;;;5033735;28;20130;-48
2023/11/03 12:14:33;;;;;;;6.68;2.08;;;25.70;99.90;;;;;;5032999;28;20041;-48
2023/11/03 12:17:00;;;;;;;5.25;1.83;;;25.70;99.90;;;;;;5033892;28;20060;-48
2023/11/03 12:19:26;;;;;;;6.10;2.03;;;25.70;99.90;;;;;;5015087;28;20097;-48
2023/11/03 12:21:52;;;;;;;7.50;1.63;;;25.70;99.90;;;;;;5034103;28;20036;-47
2023/11/03 12:24:18;;;;;;;6.82;1.80;;;25.80;99.90;;;;;;5049215;28;20028;-47
2023/11/03 12:26:44;;;;;;;6.80;2.30;;;25.80;99.90;;;;;;5033666;28;20018;-48
2023/11/03 12:29:32;;;;;;;5.18;1.80;;;25.80;99.90;;;;;;5033838;28;20039;-48
2023/11/03 12:31:59;;;;;;;7.28;2.28;;;25.80;99.90;;;;;;5032018;28;20034;-48
2023/11/03 12:34:26;;;;;;;8.32;2.45;;;25.80;99.90;;;;;;5033336;28;20040;-48
2023/11/03 12:36:52;;;;;;;10.35;2.28;;;25.90;99.90;;;;;;5033677;28;20369;-47
2023/11/03 12:39:18;;;;;;;4.60;2.55;;;25.90;99.90;;;;;;5033798;28;20026;-48
2023/11/03 12:42:07;;;;;;;7.07;2.72;;;25.90;99.90;;;;;;5032910;28;20539;-48
2023/11/03 12:44:54;;;;;;;7.63;3.17;;;26.00;99.90;;;;;;5033500;28;20022;-48
2023/11/03 12:47:44;;;;;;;7.68;2.83;;;26.00;99.90;;;;;;5033396;28;20025;-48